Time;durP1;ratioP1;P1;durP2;ratioP2;P2;SDS_P1;SDS_P2;PMS_P1;PMS_P2;Temp;Humidity;BMP_temperature;BMP_pressure;BME280_temperature;BME280_humidity;BME280_pressure;Samples;Min_cycle;Max_cycle;Signal;HPM_P1;HPM_P2
2023/03/29 00:00:39;;;;;;;7.38;2.72;;;7.20;99.90;;;;;;4180915;28;20052;-72
2023/03/29 00:02:40;;;;;;;5.93;2.85;;;7.20;99.90;;;;;;4185088;28;20044;-72
2023/03/29 00:04:41;;;;;;;7.18;3.20;;;7.20;99.90;;;;;;4177123;28;20837;-70
2023/03/29 00:06:46;;;;;;;6.85;3.30;;;7.10;99.90;;;;;;4188715;28;20114;-71
2023/03/29 00:08:53;;;;;;;6.13;3.35;;;7.10;99.90;;;;;;4183194;28;20033;-71
2023/03/29 00:10:55;;;;;;;5.05;2.80;;;7.10;99.90;;;;;;4171387;28;20053;-71
2023/03/29 00:12:56;;;;;;;6.78;2.60;;;7.10;99.90;;;;;;4166043;28;20033;-71
2023/03/29 00:14:56;;;;;;;6.20;3.25;;;7.10;99.90;;;;;;4167263;28;20040;-70
2023/03/29 00:16:57;;;;;;;8.18;3.65;;;7.10;99.90;;;;;;4162458;28;20033;-71
2023/03/29 00:18:58;;;;;;;5.47;3.10;;;7.20;99.90;;;;;;4169673;28;20030;-71
2023/03/29 00:20:59;;;;;;;5.53;2.92;;;7.20;99.90;;;;;;4167239;28;20040;-71
2023/03/29 00:23:00;;;;;;;6.18;3.10;;;7.20;99.90;;;;;;4178695;28;20021;-71
2023/03/29 00:25:00;;;;;;;3.67;2.60;;;7.20;99.90;;;;;;4180373;28;20127;-71
2023/03/29 00:27:01;;;;;;;3.90;2.72;;;7.20;99.90;;;;;;4181675;28;20513;-71
2023/03/29 00:29:02;;;;;;;4.75;2.88;;;7.20;99.90;;;;;;4176540;28;20029;-71
2023/03/29 00:31:11;;;;;;;6.10;2.92;;;7.20;99.90;;;;;;4169601;28;20029;-71
2023/03/29 00:33:13;;;;;;;4.53;2.65;;;7.20;99.90;;;;;;4168475;28;20065;-69
2023/03/29 00:35:14;;;;;;;6.80;2.95;;;7.20;99.90;;;;;;4166386;28;20025;-71
2023/03/29 00:37:15;;;;;;;5.10;2.83;;;7.20;99.90;;;;;;4164762;28;20068;-71
2023/03/29 00:39:17;;;;;;;6.25;3.22;;;7.20;99.90;;;;;;4169222;28;20037;-71
2023/03/29 00:41:17;;;;;;;7.88;3.20;;;7.20;99.90;;;;;;4164645;28;20103;-72
2023/03/29 00:43:18;;;;;;;6.90;2.97;;;7.10;99.90;;;;;;4170859;28;20485;-72
2023/03/29 00:45:22;;;;;;;4.88;2.95;;;7.20;99.90;;;;;;4167499;28;20049;-72
2023/03/29 00:47:40;;;;;;;7.43;3.03;;;7.20;99.90;;;;;;4167326;28;20500;-72
2023/03/29 00:49:41;;;;;;;4.93;2.80;;;7.20;99.90;;;;;;4166429;28;20053;-72
2023/03/29 00:51:43;;;;;;;6.20;3.50;;;7.20;99.90;;;;;;4166755;28;20034;-71
2023/03/29 00:53:49;;;;;;;4.40;2.88;;;7.30;99.90;;;;;;4167637;28;20120;-69
2023/03/29 00:55:56;;;;;;;4.47;2.70;;;7.30;99.90;;;;;;4169949;28;20037;-71
2023/03/29 00:57:59;;;;;;;8.45;2.72;;;7.30;99.90;;;;;;4167116;28;20128;-71
2023/03/29 01:00:03;;;;;;;7.30;3.15;;;7.30;99.90;;;;;;4169063;28;20511;-71
2023/03/29 01:02:06;;;;;;;7.25;3.10;;;7.30;99.90;;;;;;4157675;28;20033;-71
2023/03/29 01:04:35;;;;;;;6.70;3.42;;;7.30;99.90;;;;;;4173769;28;20037;-70
2023/03/29 01:06:38;;;;;;;5.38;3.00;;;7.30;99.90;;;;;;4151524;28;20066;-71
2023/03/29 01:08:47;;;;;;;6.30;3.50;;;7.20;99.90;;;;;;4165888;28;20029;-72
2023/03/29 01:11:00;;;;;;;4.93;2.90;;;7.30;99.90;;;;;;4167219;28;20033;-71
2023/03/29 01:13:06;;;;;;;4.57;2.63;;;7.30;99.90;;;;;;4168578;28;20037;-70
2023/03/29 01:15:13;;;;;;;5.82;3.00;;;7.30;99.90;;;;;;4175120;28;20029;-71
2023/03/29 01:17:14;;;;;;;6.72;3.40;;;7.30;99.90;;;;;;4170100;28;20120;-70
2023/03/29 01:19:20;;;;;;;5.18;3.05;;;7.30;99.90;;;;;;4174808;28;20488;-71
2023/03/29 01:21:35;;;;;;;4.43;2.92;;;7.30;99.90;;;;;;4181176;28;20105;-71
2023/03/29 01:24:08;;;;;;;5.72;3.40;;;7.30;99.90;;;;;;4188098;28;20040;-71
2023/03/29 01:26:14;;;;;;;6.25;2.88;;;7.30;99.90;;;;;;4184478;28;20025;-71
2023/03/29 01:28:25;;;;;;;4.80;3.13;;;7.30;99.90;;;;;;4190073;28;20606;-70
2023/03/29 01:30:30;;;;;;;6.05;3.00;;;7.30;99.90;;;;;;4183419;28;20043;-70
2023/03/29 01:32:43;;;;;;;6.10;3.20;;;7.40;99.90;;;;;;4173321;28;20033;-70
2023/03/29 01:35:09;;;;;;;3.85;2.75;;;7.40;99.90;;;;;;4177982;28;21138;-71
2023/03/29 01:37:20;;;;;;;7.65;3.03;;;7.40;99.90;;;;;;4184029;28;20045;-71
2023/03/29 01:39:21;;;;;;;6.55;2.90;;;7.40;99.90;;;;;;4185082;28;20537;-71
2023/03/29 01:41:32;;;;;;;4.75;2.72;;;7.40;99.90;;;;;;4184170;28;20033;-70
2023/03/29 01:43:47;;;;;;;6.20;3.70;;;7.40;99.90;;;;;;4171389;28;20040;-71
2023/03/29 01:45:59;;;;;;;7.30;3.38;;;7.40;99.90;;;;;;4176340;28;20029;-70
2023/03/29 01:48:34;;;;;;;6.40;3.03;;;7.40;99.90;;;;;;4169993;28;20025;-71
2023/03/29 01:50:35;;;;;;;6.18;3.05;;;7.40;99.90;;;;;;4175192;28;20171;-71
2023/03/29 01:52:44;;;;;;;8.05;2.97;;;7.40;99.90;;;;;;4177567;28;20032;-71
2023/03/29 01:55:05;;;;;;;5.60;3.20;;;7.40;99.90;;;;;;4185180;28;20153;-70
2023/03/29 01:57:09;;;;;;;4.53;2.72;;;7.50;99.90;;;;;;4178621;28;20031;-71
2023/03/29 01:59:13;;;;;;;6.95;3.30;;;7.40;99.90;;;;;;4166160;28;20504;-71
2023/03/29 02:01:20;;;;;;;4.82;2.88;;;7.50;99.90;;;;;;4163599;28;20045;-71
2023/03/29 02:03:23;;;;;;;5.22;3.05;;;7.50;99.90;;;;;;4170418;28;20119;-71
2023/03/29 02:05:26;;;;;;;6.35;3.40;;;7.50;99.90;;;;;;4167495;28;20034;-71
2023/03/29 02:07:36;;;;;;;4.90;2.90;;;7.50;99.90;;;;;;4170537;28;20037;-71
2023/03/29 02:09:38;;;;;;;7.78;3.13;;;7.50;99.90;;;;;;4169004;28;20495;-71
2023/03/29 02:11:42;;;;;;;4.53;2.90;;;7.50;99.90;;;;;;4169749;28;20078;-71
2023/03/29 02:13:42;;;;;;;5.18;3.15;;;7.50;99.90;;;;;;4188041;28;20225;-71
2023/03/29 02:15:44;;;;;;;5.40;3.28;;;7.50;99.90;;;;;;4163872;28;20037;-71
2023/03/29 02:17:48;;;;;;;5.60;3.13;;;7.50;99.90;;;;;;4184301;28;20120;-71
2023/03/29 02:19:53;;;;;;;4.97;2.75;;;7.50;99.90;;;;;;4180915;28;20029;-70
2023/03/29 02:22:00;;;;;;;5.15;3.00;;;7.50;99.90;;;;;;4175546;28;21315;-70
2023/03/29 02:24:05;;;;;;;5.32;3.10;;;7.50;99.90;;;;;;4156668;28;20034;-70
2023/03/29 02:26:07;;;;;;;6.57;3.20;;;7.50;99.90;;;;;;4186823;28;20051;-70
2023/03/29 02:28:08;;;;;;;7.17;3.23;;;7.50;99.90;;;;;;4183628;28;20090;-71
2023/03/29 02:30:11;;;;;;;10.63;3.42;;;7.50;99.90;;;;;;4189506;28;20036;-72
2023/03/29 02:32:16;;;;;;;5.28;3.05;;;7.50;99.90;;;;;;4177931;28;20083;-71
2023/03/29 02:34:21;;;;;;;5.68;3.05;;;7.50;99.90;;;;;;4178062;28;20044;-70
2023/03/29 02:36:27;;;;;;;6.43;3.10;;;7.60;99.90;;;;;;4183955;28;20037;-70
2023/03/29 02:38:30;;;;;;;6.43;2.75;;;7.50;99.90;;;;;;4172634;28;20056;-70
2023/03/29 02:40:33;;;;;;;4.93;2.33;;;7.60;99.90;;;;;;4179386;28;20055;-70
2023/03/29 02:42:34;;;;;;;4.07;2.58;;;7.60;99.90;;;;;;4177107;28;20396;-71
2023/03/29 02:44:38;;;;;;;4.95;2.85;;;7.60;99.90;;;;;;4186474;28;20037;-70
2023/03/29 02:46:42;;;;;;;5.50;2.90;;;7.60;99.90;;;;;;4176579;28;20036;-70
2023/03/29 02:48:47;;;;;;;5.72;3.17;;;7.60;99.90;;;;;;4182299;28;20029;-71
2023/03/29 02:50:52;;;;;;;4.90;2.83;;;7.70;99.90;;;;;;4186251;28;20171;-70
2023/03/29 02:52:58;;;;;;;7.65;3.10;;;7.70;99.90;;;;;;4184598;28;20028;-71
2023/03/29 02:55:01;;;;;;;5.10;3.03;;;7.60;99.90;;;;;;4182071;28;20037;-70
2023/03/29 02:57:07;;;;;;;5.50;2.95;;;7.60;99.90;;;;;;4187315;28;20028;-70
2023/03/29 02:59:08;;;;;;;3.58;2.50;;;7.70;99.90;;;;;;4178384;28;20044;-71
2023/03/29 03:01:10;;;;;;;3.85;2.70;;;7.70;99.90;;;;;;4180498;28;20036;-71
2023/03/29 03:03:11;;;;;;;4.88;3.08;;;7.70;99.90;;;;;;4166667;28;20029;-71
2023/03/29 03:05:12;;;;;;;5.95;2.95;;;7.70;99.90;;;;;;4165832;28;20446;-72
2023/03/29 03:07:13;;;;;;;3.72;2.58;;;7.80;99.90;;;;;;4169555;28;20117;-70
2023/03/29 03:09:14;;;;;;;5.63;2.90;;;7.80;99.90;;;;;;4171926;28;20182;-67
2023/03/29 03:11:15;;;;;;;4.20;2.90;;;7.80;99.90;;;;;;4165195;28;20120;-71
2023/03/29 03:13:16;;;;;;;6.20;2.88;;;7.80;99.90;;;;;;4166961;28;20037;-70
2023/03/29 03:15:17;;;;;;;6.88;3.05;;;7.80;99.90;;;;;;4164307;28;20082;-71
2023/03/29 03:17:17;;;;;;;5.90;2.58;;;7.80;99.90;;;;;;4172100;28;20038;-71
2023/03/29 03:19:19;;;;;;;3.90;2.78;;;7.80;99.90;;;;;;4174355;28;20396;-71
2023/03/29 03:21:20;;;;;;;6.10;2.65;;;7.80;99.90;;;;;;4170930;28;20461;-71
2023/03/29 03:23:21;;;;;;;4.35;2.20;;;7.80;99.90;;;;;;4169738;28;20064;-71
2023/03/29 03:25:22;;;;;;;5.43;2.90;;;7.90;99.90;;;;;;4168834;28;20033;-71
2023/03/29 03:27:22;;;;;;;5.15;2.40;;;7.90;99.90;;;;;;4168250;28;20033;-71
2023/03/29 03:29:24;;;;;;;3.80;2.45;;;7.90;99.90;;;;;;4172034;28;20033;-72
2023/03/29 03:31:27;;;;;;;4.75;2.50;;;7.90;99.90;;;;;;4168720;28;20036;-71
2023/03/29 03:33:28;;;;;;;5.40;2.95;;;7.90;99.90;;;;;;4170676;28;20045;-70
2023/03/29 03:35:28;;;;;;;5.45;2.58;;;7.90;99.90;;;;;;4161746;28;20539;-71
2023/03/29 03:37:29;;;;;;;4.43;2.35;;;7.90;99.90;;;;;;4179869;28;20041;-71
2023/03/29 03:39:30;;;;;;;3.50;2.47;;;7.90;99.90;;;;;;4181146;28;20468;-71
2023/03/29 03:41:31;;;;;;;6.50;2.80;;;7.90;99.90;;;;;;4180789;28;20044;-71
2023/03/29 03:43:32;;;;;;;6.03;2.70;;;7.90;99.90;;;;;;4191338;28;20059;-71
2023/03/29 03:45:33;;;;;;;4.90;2.65;;;8.00;99.90;;;;;;4185537;28;20028;-71
2023/03/29 03:47:36;;;;;;;4.40;2.85;;;7.90;99.90;;;;;;4178543;28;20037;-71
2023/03/29 03:49:36;;;;;;;5.70;2.83;;;8.00;99.90;;;;;;4178471;28;20096;-71
2023/03/29 03:51:37;;;;;;;5.30;2.45;;;7.90;99.90;;;;;;4167350;28;20057;-71
2023/03/29 03:53:38;;;;;;;4.07;2.53;;;8.00;99.90;;;;;;4173566;28;20029;-71
2023/03/29 03:55:39;;;;;;;4.07;2.53;;;8.00;99.90;;;;;;4174339;28;20021;-71
2023/03/29 03:57:40;;;;;;;4.78;2.70;;;7.90;99.90;;;;;;4176492;28;20040;-71
2023/03/29 03:59:40;;;;;;;5.00;2.63;;;7.90;99.90;;;;;;4186868;28;20528;-71
2023/03/29 04:01:42;;;;;;;4.85;2.40;;;7.90;99.90;;;;;;4186429;28;20033;-71
2023/03/29 04:03:43;;;;;;;4.70;2.65;;;7.90;99.90;;;;;;4188429;28;20039;-71
2023/03/29 04:05:45;;;;;;;5.97;2.85;;;8.00;99.90;;;;;;4183564;28;20107;-71
2023/03/29 04:07:46;;;;;;;5.35;2.70;;;7.90;99.90;;;;;;4176275;28;20387;-70
2023/03/29 04:09:47;;;;;;;6.28;2.92;;;8.00;99.90;;;;;;4185508;28;20078;-71
2023/03/29 04:11:48;;;;;;;3.30;2.50;;;7.90;99.90;;;;;;4179951;28;20060;-71
2023/03/29 04:13:49;;;;;;;5.70;2.65;;;8.00;99.90;;;;;;4181975;28;20415;-71
2023/03/29 04:15:52;;;;;;;4.93;2.58;;;8.00;99.90;;;;;;4189084;28;20040;-72
2023/03/29 04:17:57;;;;;;;7.35;3.17;;;7.90;99.90;;;;;;4191771;28;20067;-71
2023/03/29 04:20:00;;;;;;;5.90;2.95;;;7.90;99.90;;;;;;4174661;28;20083;-70
2023/03/29 04:22:00;;;;;;;4.40;3.08;;;7.90;99.90;;;;;;4175344;28;20060;-71
2023/03/29 04:24:01;;;;;;;5.15;2.40;;;7.90;99.90;;;;;;4187522;28;20484;-71
2023/03/29 04:26:01;;;;;;;4.53;2.83;;;7.90;99.90;;;;;;4177531;28;20029;-72
2023/03/29 04:28:02;;;;;;;6.75;2.72;;;8.00;99.90;;;;;;4171323;28;20040;-72
2023/03/29 04:30:04;;;;;;;4.57;2.40;;;7.90;99.90;;;;;;4171674;28;20033;-72
2023/03/29 04:32:04;;;;;;;4.57;2.63;;;7.90;99.90;;;;;;4182387;28;20490;-72
2023/03/29 04:34:05;;;;;;;4.43;2.53;;;7.90;99.90;;;;;;4173914;28;20044;-72
2023/03/29 04:36:08;;;;;;;4.47;2.65;;;7.90;99.90;;;;;;4168557;28;20025;-72
2023/03/29 04:38:08;;;;;;;4.90;2.45;;;7.90;99.90;;;;;;4188447;28;20118;-73
2023/03/29 04:40:13;;;;;;;6.18;2.40;;;7.90;99.90;;;;;;4181245;28;20037;-73
2023/03/29 04:42:14;;;;;;;4.85;2.72;;;8.00;99.90;;;;;;4185110;28;20113;-73
2023/03/29 04:44:15;;;;;;;5.20;2.63;;;8.00;99.90;;;;;;4188378;28;20025;-71
2023/03/29 04:46:15;;;;;;;4.63;2.80;;;7.90;99.90;;;;;;4187116;28;20041;-72
2023/03/29 04:48:16;;;;;;;4.57;2.67;;;7.90;99.90;;;;;;4189806;28;20138;-73
2023/03/29 04:50:17;;;;;;;4.32;2.58;;;7.90;99.90;;;;;;4179734;28;20036;-73
2023/03/29 04:52:17;;;;;;;8.02;2.45;;;7.90;99.90;;;;;;4189858;28;20021;-72
2023/03/29 04:54:18;;;;;;;9.63;3.53;;;7.90;99.90;;;;;;4189341;28;20527;-72
2023/03/29 04:56:22;;;;;;;4.80;3.05;;;7.80;99.90;;;;;;4184868;28;20499;-73
2023/03/29 04:58:22;;;;;;;5.70;3.13;;;7.80;99.90;;;;;;4174583;28;20091;-73
2023/03/29 05:00:26;;;;;;;6.32;2.65;;;7.80;99.90;;;;;;4175490;28;20793;-73
2023/03/29 05:02:29;;;;;;;6.63;2.70;;;7.80;99.90;;;;;;4166052;28;20037;-69
2023/03/29 05:04:31;;;;;;;5.90;3.08;;;7.80;99.90;;;;;;4163480;28;20447;-73
2023/03/29 05:06:32;;;;;;;6.60;2.92;;;7.80;99.90;;;;;;4173095;28;20071;-73
2023/03/29 05:08:33;;;;;;;5.88;3.20;;;7.70;99.90;;;;;;4169347;28;20021;-73
2023/03/29 05:10:35;;;;;;;5.70;3.20;;;7.80;99.90;;;;;;4178999;28;20043;-72
2023/03/29 05:12:36;;;;;;;6.30;3.28;;;7.70;99.90;;;;;;4188043;28;20079;-73
2023/03/29 05:14:36;;;;;;;6.53;3.03;;;7.70;99.90;;;;;;4190587;28;20037;-73
2023/03/29 05:16:37;;;;;;;7.22;3.30;;;7.70;99.90;;;;;;4180789;28;20033;-73
2023/03/29 05:18:37;;;;;;;7.20;3.55;;;7.70;99.90;;;;;;4178797;28;20107;-73
2023/03/29 05:20:39;;;;;;;5.57;3.15;;;7.70;99.90;;;;;;4187069;28;20063;-73
2023/03/29 05:22:40;;;;;;;6.03;3.75;;;7.70;99.90;;;;;;4187821;28;20796;-73
2023/03/29 05:24:40;;;;;;;6.07;3.42;;;7.60;99.90;;;;;;4183012;28;20036;-73
2023/03/29 05:26:41;;;;;;;5.07;3.13;;;7.60;99.90;;;;;;4179771;28;20029;-73
2023/03/29 05:28:42;;;;;;;6.22;3.58;;;7.70;99.90;;;;;;4177441;28;20120;-73
2023/03/29 05:30:43;;;;;;;6.05;3.50;;;7.70;99.90;;;;;;4170659;28;20033;-72
2023/03/29 05:32:44;;;;;;;6.22;3.70;;;7.60;99.90;;;;;;4187322;28;20369;-73
2023/03/29 05:34:44;;;;;;;8.80;3.85;;;7.60;99.90;;;;;;4165923;28;20041;-69
2023/03/29 05:36:45;;;;;;;5.65;3.42;;;7.60;99.90;;;;;;4185165;28;20040;-73
2023/03/29 05:38:45;;;;;;;6.07;3.42;;;7.70;99.90;;;;;;4182525;28;20033;-72
2023/03/29 05:40:46;;;;;;;8.07;4.10;;;7.60;99.90;;;;;;4183135;28;20036;-72
2023/03/29 05:42:47;;;;;;;6.47;3.60;;;7.60;99.90;;;;;;4182827;28;20041;-72
2023/03/29 05:44:47;;;;;;;5.93;3.47;;;7.60;99.90;;;;;;4180024;28;20029;-72
2023/03/29 05:46:48;;;;;;;6.45;3.50;;;7.70;99.90;;;;;;4185319;28;20436;-71
2023/03/29 05:48:48;;;;;;;9.88;3.70;;;7.60;99.90;;;;;;4190743;28;20483;-71
2023/03/29 05:50:51;;;;;;;7.32;3.40;;;7.70;99.90;;;;;;4188157;28;20383;-72
2023/03/29 05:52:51;;;;;;;7.07;3.60;;;7.70;99.90;;;;;;4186840;28;20035;-72
2023/03/29 05:54:52;;;;;;;7.35;3.22;;;7.70;99.90;;;;;;4192447;28;20028;-72
2023/03/29 05:56:53;;;;;;;10.05;3.60;;;7.70;99.90;;;;;;4181600;28;20384;-72
2023/03/29 05:58:55;;;;;;;7.05;3.42;;;7.80;99.90;;;;;;4154468;28;20034;-73
2023/03/29 06:00:56;;;;;;;6.28;3.67;;;7.80;99.90;;;;;;4178416;28;20368;-71
2023/03/29 06:02:57;;;;;;;6.88;3.72;;;7.80;99.90;;;;;;4185170;28;20048;-72
2023/03/29 06:04:58;;;;;;;9.65;4.47;;;7.80;99.90;;;;;;4188513;28;20037;-71
2023/03/29 06:07:00;;;;;;;5.50;3.75;;;7.80;99.90;;;;;;4184571;28;20059;-71
2023/03/29 06:09:01;;;;;;;5.53;3.45;;;7.80;99.90;;;;;;4188466;28;20369;-72
2023/03/29 06:11:05;;;;;;;5.97;3.50;;;7.80;99.90;;;;;;4168259;28;20124;-72
2023/03/29 06:13:05;;;;;;;8.27;4.03;;;7.80;99.90;;;;;;4173074;28;20128;-72
2023/03/29 06:15:07;;;;;;;10.20;3.90;;;7.70;99.90;;;;;;4165855;28;20030;-71
2023/03/29 06:17:07;;;;;;;7.45;3.70;;;7.70;99.90;;;;;;4169791;28;20026;-72
2023/03/29 06:19:08;;;;;;;6.82;3.85;;;7.80;99.90;;;;;;4173406;28;20087;-72
2023/03/29 06:21:09;;;;;;;8.93;3.50;;;7.80;99.90;;;;;;4170906;28;20039;-72
2023/03/29 06:23:10;;;;;;;5.32;3.35;;;7.80;99.90;;;;;;4168459;28;20029;-72
2023/03/29 06:25:11;;;;;;;9.18;3.95;;;7.80;99.90;;;;;;4164225;28;20033;-72
2023/03/29 06:27:11;;;;;;;6.20;3.45;;;7.80;99.90;;;;;;4172041;28;20041;-72
2023/03/29 06:29:12;;;;;;;7.05;3.85;;;7.90;99.90;;;;;;4166147;28;20392;-72
2023/03/29 06:31:13;;;;;;;6.60;4.05;;;7.90;99.90;;;;;;4167853;28;20397;-72
2023/03/29 06:33:15;;;;;;;7.97;3.90;;;7.90;99.90;;;;;;4163171;28;20025;-72
2023/03/29 06:35:16;;;;;;;14.95;4.45;;;7.90;99.90;;;;;;4169456;28;20038;-72
2023/03/29 06:37:16;;;;;;;11.77;4.53;;;7.90;99.90;;;;;;4173908;28;20037;-71
2023/03/29 06:39:17;;;;;;;11.68;4.13;;;8.00;99.90;;;;;;4167231;28;20045;-72
2023/03/29 06:41:17;;;;;;;8.18;3.70;;;8.10;99.90;;;;;;4170041;28;20512;-72
2023/03/29 06:43:18;;;;;;;10.32;4.15;;;8.10;99.90;;;;;;4172919;28;20040;-71
2023/03/29 06:45:19;;;;;;;10.93;5.03;;;8.10;99.90;;;;;;4165321;28;20046;-71
2023/03/29 06:47:20;;;;;;;8.27;4.13;;;8.10;99.90;;;;;;4169948;28;20060;-71
2023/03/29 06:49:21;;;;;;;7.32;3.47;;;8.20;99.90;;;;;;4172794;28;20032;-72
2023/03/29 06:51:22;;;;;;;7.07;3.78;;;8.10;99.90;;;;;;4170856;28;20033;-72
2023/03/29 06:53:22;;;;;;;6.35;3.47;;;8.20;99.90;;;;;;4169001;28;20724;-75
2023/03/29 06:55:24;;;;;;;9.60;3.75;;;8.20;99.90;;;;;;4167546;28;20091;-75
2023/03/29 06:57:26;;;;;;;7.88;3.75;;;8.30;99.90;;;;;;4178349;28;20025;-75
2023/03/29 06:59:27;;;;;;;6.40;4.03;;;8.30;99.90;;;;;;4166647;28;20060;-75
2023/03/29 07:01:28;;;;;;;6.00;3.53;;;8.30;99.90;;;;;;4165773;28;20033;-75
2023/03/29 07:03:28;;;;;;;9.43;3.55;;;8.40;99.90;;;;;;4172962;28;20079;-70
2023/03/29 07:05:30;;;;;;;4.15;2.92;;;8.40;99.90;;;;;;4174904;28;20445;-73
2023/03/29 07:07:52;;;;;;;4.57;2.80;;;8.40;99.90;;;;;;4171477;28;20033;-75
2023/03/29 07:09:54;;;;;;;6.32;3.15;;;8.40;99.90;;;;;;4174353;28;20044;-75
2023/03/29 07:11:59;;;;;;;5.05;2.53;;;8.40;99.90;;;;;;4166965;28;20034;-75
2023/03/29 07:13:59;;;;;;;5.55;3.08;;;8.50;99.90;;;;;;4173329;28;20025;-75
2023/03/29 07:16:00;;;;;;;5.55;3.38;;;8.50;99.90;;;;;;4167346;28;20504;-75
2023/03/29 07:18:02;;;;;;;8.32;3.28;;;8.50;99.90;;;;;;4174129;28;20493;-76
2023/03/29 07:20:07;;;;;;;6.60;3.20;;;8.50;99.90;;;;;;4174739;28;20484;-75
2023/03/29 07:22:08;;;;;;;4.13;2.63;;;8.60;99.90;;;;;;4168752;28;20033;-75
2023/03/29 07:24:09;;;;;;;5.63;2.95;;;8.50;99.90;;;;;;4172459;28;20025;-76
2023/03/29 07:26:10;;;;;;;6.45;3.00;;;8.60;99.90;;;;;;4169857;28;20052;-75
2023/03/29 07:28:11;;;;;;;6.63;2.95;;;8.60;99.90;;;;;;4169457;28;20021;-75
2023/03/29 07:30:15;;;;;;;6.40;3.17;;;8.60;99.90;;;;;;4174489;28;20427;-74
2023/03/29 07:32:16;;;;;;;7.45;2.80;;;8.60;99.90;;;;;;4170845;28;20431;-68
2023/03/29 07:34:16;;;;;;;5.65;3.28;;;8.60;99.90;;;;;;4180015;28;20049;-75
2023/03/29 07:36:18;;;;;;;5.80;3.15;;;8.70;99.90;;;;;;4183552;28;20026;-76
2023/03/29 07:38:19;;;;;;;6.40;3.28;;;8.70;99.90;;;;;;4189479;28;24523;-75
2023/03/29 07:40:22;;;;;;;5.72;2.97;;;8.70;99.90;;;;;;4184989;28;20040;-76
2023/03/29 07:42:22;;;;;;;5.75;2.85;;;8.70;99.90;;;;;;4184995;28;20067;-76
2023/03/29 07:44:23;;;;;;;6.00;3.13;;;8.70;99.90;;;;;;4187346;28;20037;-76
2023/03/29 07:46:24;;;;;;;7.38;3.03;;;8.80;99.90;;;;;;4188935;28;20059;-76
2023/03/29 07:48:24;;;;;;;6.93;2.90;;;8.80;99.90;;;;;;4190886;28;20024;-75
2023/03/29 07:50:26;;;;;;;6.78;3.00;;;8.80;99.90;;;;;;4179892;28;20398;-75
2023/03/29 07:52:27;;;;;;;5.47;3.17;;;8.90;99.90;;;;;;4180109;28;20030;-75
2023/03/29 07:54:31;;;;;;;5.20;2.83;;;8.90;99.90;;;;;;4186734;28;20036;-75
2023/03/29 07:56:31;;;;;;;4.22;2.42;;;8.90;99.90;;;;;;4186227;28;20033;-75
2023/03/29 07:58:32;;;;;;;5.38;3.03;;;8.90;99.90;;;;;;4184029;28;20487;-74
2023/03/29 08:00:32;;;;;;;9.00;3.55;;;9.00;99.90;;;;;;4176857;28;20438;-74
2023/03/29 08:02:33;;;;;;;5.93;3.15;;;9.00;99.90;;;;;;4184525;28;20028;-74
2023/03/29 08:04:33;;;;;;;6.63;3.25;;;9.00;99.90;;;;;;4187915;28;20033;-75
2023/03/29 08:06:34;;;;;;;7.88;2.85;;;9.00;99.90;;;;;;4181136;28;20037;-74
2023/03/29 08:08:35;;;;;;;4.90;2.92;;;9.10;99.90;;;;;;4190184;28;20051;-75
2023/03/29 08:10:38;;;;;;;6.53;2.63;;;9.10;99.90;;;;;;4186618;28;20036;-74
2023/03/29 08:12:38;;;;;;;;;;;9.10;99.90;;;;;;4183896;28;20041;-75
2023/03/29 08:14:39;;;;;;;5.35;2.83;;;9.10;99.90;;;;;;4183961;28;19908;-74
2023/03/29 08:16:40;;;;;;;4.40;2.83;;;9.10;99.90;;;;;;4176798;28;20086;-74
2023/03/29 08:18:41;;;;;;;7.68;2.97;;;9.20;99.90;;;;;;4168641;28;20391;-75
2023/03/29 08:20:42;;;;;;;7.15;3.15;;;9.20;99.90;;;;;;4189175;28;20072;-74
2023/03/29 08:22:43;;;;;;;6.38;3.20;;;9.20;99.90;;;;;;4178905;28;20048;-74
2023/03/29 08:24:43;;;;;;;6.78;3.25;;;9.20;99.90;;;;;;4181200;28;20029;-74
2023/03/29 08:26:44;;;;;;;7.05;3.13;;;9.30;99.90;;;;;;4187389;28;20514;-75
2023/03/29 08:28:44;;;;;;;5.78;3.42;;;9.30;99.90;;;;;;4180459;28;20084;-75
2023/03/29 08:30:45;;;;;;;6.03;3.35;;;9.30;99.90;;;;;;4178481;28;20033;-74
2023/03/29 08:32:46;;;;;;;6.10;3.33;;;9.30;99.90;;;;;;4181477;28;20120;-74
2023/03/29 08:34:46;;;;;;;5.88;3.10;;;9.30;99.90;;;;;;4174789;28;20040;-70
2023/03/29 08:36:47;;;;;;;6.93;3.10;;;9.40;99.90;;;;;;4175412;28;20082;-73
2023/03/29 08:38:49;;;;;;;7.97;3.08;;;9.40;99.90;;;;;;4179059;28;20057;-75
2023/03/29 08:40:49;;;;;;;4.77;2.73;;;9.40;99.90;;;;;;4158596;28;20033;-74
2023/03/29 08:43:03;;;;;;;4.45;2.70;;;9.40;99.90;;;;;;4186124;28;20171;-74
2023/03/29 08:45:19;;;;;;;5.88;2.90;;;9.50;99.90;;;;;;4186618;28;20033;-75
2023/03/29 08:47:35;;;;;;;5.10;3.08;;;9.50;99.90;;;;;;4187556;28;20051;-74
2023/03/29 08:49:37;;;;;;;5.68;3.45;;;9.50;99.90;;;;;;4183633;28;20033;-74
2023/03/29 08:51:51;;;;;;;6.32;3.30;;;9.60;99.90;;;;;;4164204;28;20041;-74
2023/03/29 08:54:01;;;;;;;8.70;3.15;;;9.60;99.90;;;;;;4183728;28;20438;-75
2023/03/29 08:56:07;;;;;;;7.47;3.28;;;9.60;99.90;;;;;;4172584;28;20029;-75
2023/03/29 08:58:18;;;;;;;7.20;3.00;;;9.70;99.90;;;;;;4168296;28;20094;-75
2023/03/29 09:00:37;;;;;;;5.45;3.30;;;9.70;99.90;;;;;;4167227;28;20072;-75
2023/03/29 09:02:39;;;;;;;5.35;3.25;;;9.70;99.90;;;;;;4166150;28;20565;-75
2023/03/29 09:04:41;;;;;;;6.07;3.63;;;9.80;99.90;;;;;;4171565;28;20400;-75
2023/03/29 09:06:42;;;;;;;6.35;4.05;;;9.80;99.90;;;;;;4173312;28;20511;-75
2023/03/29 09:08:47;;;;;;;10.77;3.40;;;9.80;99.90;;;;;;4176563;28;20045;-75
2023/03/29 09:11:13;;;;;;;5.97;2.90;;;9.90;99.90;;;;;;4163108;28;20112;-75
2023/03/29 09:13:29;;;;;;;8.70;3.70;;;10.00;99.90;;;;;;4169210;28;20030;-75
2023/03/29 09:15:40;;;;;;;6.82;3.50;;;10.00;99.90;;;;;;4167568;28;20037;-74
2023/03/29 09:17:52;;;;;;;8.30;3.85;;;10.10;99.90;;;;;;4170155;28;20114;-75
2023/03/29 09:20:01;;;;;;;6.00;3.15;;;10.10;99.90;;;;;;4174494;28;20021;-75
2023/03/29 09:22:19;;;;;;;6.63;3.33;;;10.20;99.90;;;;;;4168712;28;20029;-74
2023/03/29 09:24:56;;;;;;;7.57;4.18;;;10.20;99.90;;;;;;4171461;28;20034;-75
2023/03/29 09:27:14;;;;;;;7.43;3.70;;;10.40;99.90;;;;;;4173258;28;20082;-74
2023/03/29 09:29:17;;;;;;;10.73;3.92;;;10.40;99.90;;;;;;4181211;28;20105;-74
2023/03/29 09:31:21;;;;;;;6.18;3.45;;;10.50;99.90;;;;;;4179884;28;20361;-72
2023/03/29 09:33:27;;;;;;;7.95;3.50;;;10.60;99.90;;;;;;4183522;28;20353;-74
2023/03/29 09:35:42;;;;;;;9.80;3.92;;;10.70;99.90;;;;;;4173795;28;20392;-74
2023/03/29 09:37:45;;;;;;;6.75;3.70;;;10.70;99.90;;;;;;4179597;28;20403;-74
2023/03/29 09:39:48;;;;;;;6.45;3.17;;;10.80;99.90;;;;;;4182039;28;20041;-74
2023/03/29 09:42:11;;;;;;;6.72;2.95;;;10.80;99.90;;;;;;4185234;28;20032;-73
2023/03/29 09:44:17;;;;;;;9.05;3.60;;;10.90;99.90;;;;;;4184392;28;20025;-74
2023/03/29 09:46:47;;;;;;;5.93;3.20;;;10.90;99.90;;;;;;4184831;28;20025;-73
2023/03/29 09:48:49;;;;;;;7.63;3.28;;;11.00;99.90;;;;;;4167968;28;20028;-74
2023/03/29 09:50:51;;;;;;;6.13;2.92;;;11.00;99.90;;;;;;4170523;28;20022;-75
2023/03/29 09:52:51;;;;;;;9.13;3.70;;;11.10;99.90;;;;;;4176819;28;20053;-74
2023/03/29 09:54:52;;;;;;;8.00;3.15;;;11.20;99.90;;;;;;4168697;28;20377;-74
2023/03/29 09:56:53;;;;;;;11.10;3.75;;;11.20;99.90;;;;;;4174962;28;20053;-75
2023/03/29 09:58:53;;;;;;;5.10;3.03;;;11.30;99.90;;;;;;4170918;28;20046;-76
2023/03/29 10:01:00;;;;;;;5.65;3.00;;;11.30;99.90;;;;;;4167581;28;20033;-75
2023/03/29 10:03:00;;;;;;;4.97;2.78;;;11.40;99.90;;;;;;4175768;28;20484;-76
2023/03/29 10:05:04;;;;;;;9.32;2.80;;;11.40;99.90;;;;;;4177265;28;20033;-75
2023/03/29 10:07:06;;;;;;;7.20;3.40;;;11.50;99.90;;;;;;4176824;28;20033;-76
2023/03/29 10:09:15;;;;;;;6.18;3.03;;;11.60;99.90;;;;;;4191132;28;20425;-76
2023/03/29 10:11:34;;;;;;;12.75;3.47;;;11.60;99.90;;;;;;4189536;28;20491;-75
2023/03/29 10:13:44;;;;;;;5.53;3.10;;;11.70;99.90;;;;;;4189228;28;20040;-76
2023/03/29 10:15:57;;;;;;;6.78;3.40;;;11.70;99.90;;;;;;4187252;28;20028;-76
2023/03/29 10:17:59;;;;;;;7.90;2.97;;;11.80;99.90;;;;;;4168026;28;20036;-76
2023/03/29 10:20:05;;;;;;;6.82;2.83;;;11.90;99.90;;;;;;4175865;28;20044;-78
2023/03/29 10:22:15;;;;;;;5.78;3.38;;;11.90;99.90;;;;;;4167197;28;20048;-77
2023/03/29 10:24:24;;;;;;;7.38;2.97;;;12.00;99.90;;;;;;4170203;28;20068;-76
2023/03/29 10:26:31;;;;;;;5.57;2.72;;;12.00;99.90;;;;;;4161309;28;20021;-75
2023/03/29 10:28:33;;;;;;;5.07;3.20;;;12.00;99.90;;;;;;4161975;28;20156;-74
2023/03/29 10:30:37;;;;;;;6.18;3.25;;;12.00;99.90;;;;;;4173496;28;20025;-76
2023/03/29 10:32:39;;;;;;;6.57;2.90;;;12.10;99.90;;;;;;4170622;28;20029;-77
2023/03/29 10:34:40;;;;;;;5.78;2.63;;;12.10;99.90;;;;;;4164404;28;20563;-76
2023/03/29 10:36:44;;;;;;;5.07;3.00;;;12.20;99.90;;;;;;4175171;28;20086;-77
2023/03/29 10:38:45;;;;;;;5.43;2.72;;;12.20;99.90;;;;;;4170323;28;20033;-76
2023/03/29 10:40:51;;;;;;;6.38;2.80;;;12.20;99.90;;;;;;4170403;28;20566;-77
2023/03/29 10:42:56;;;;;;;6.15;2.85;;;12.20;99.90;;;;;;4169855;28;20500;-75
2023/03/29 10:44:58;;;;;;;5.15;2.85;;;12.20;99.90;;;;;;4179038;28;20361;-77
2023/03/29 10:47:14;;;;;;;6.15;2.78;;;12.20;99.90;;;;;;4181750;28;20048;-77
2023/03/29 10:49:19;;;;;;;8.25;3.10;;;12.30;99.90;;;;;;4179725;28;20044;-76
2023/03/29 10:51:20;;;;;;;7.68;2.90;;;12.30;99.90;;;;;;4183356;28;20033;-75